createdAt,value
2019-04-30T00:03:50.476Z,36.33
2019-04-30T00:13:58.873Z,34.33
2019-04-30T00:24:08.656Z,37.47
2019-04-30T00:34:10.054Z,29.90
2019-04-30T00:44:15.405Z,37.47
2019-04-30T00:54:22.525Z,31.80
2019-04-30T01:04:32.684Z,34.23
2019-04-30T01:14:38.635Z,34.43
2019-04-30T01:24:44.330Z,35.90
2019-04-30T01:34:53.872Z,34.27
2019-04-30T01:44:56.683Z,34.73
2019-04-30T01:55:01.961Z,38.27
2019-04-30T02:05:08.938Z,28.47
2019-04-30T02:15:14.255Z,29.90
2019-04-30T02:25:19.655Z,36.07
2019-04-30T02:35:47.112Z,28.77
2019-04-30T02:45:55.817Z,30.67
2019-04-30T02:56:02.639Z,23.93
2019-04-30T03:06:07.936Z,26.23
2019-04-30T03:16:14.862Z,26.33
2019-04-30T03:26:20.218Z,26.60
2019-04-30T03:36:26.734Z,30.33
2019-04-30T03:46:32.037Z,26.73
2019-04-30T03:56:39.673Z,27.10
2019-04-30T04:06:49.249Z,22.73
2019-04-30T04:16:54.299Z,17.33
2019-04-30T04:26:59.811Z,21.43
2019-04-30T04:37:05.958Z,25.40
2019-04-30T04:47:12.040Z,21.63
2019-04-30T04:57:19.244Z,28.80
2019-04-30T05:07:24.331Z,25.77
2019-04-30T05:17:32.103Z,22.80
2019-04-30T05:27:36.907Z,23.53
2019-04-30T05:37:42.279Z,25.60
2019-04-30T05:47:50.176Z,21.03
2019-04-30T05:57:56.537Z,22.47
2019-04-30T06:08:01.782Z,22.03
2019-04-30T06:18:13.499Z,20.27
2019-04-30T06:28:14.337Z,17.07
2019-04-30T06:38:19.614Z,15.00
2019-04-30T06:48:26.102Z,15.17
2019-04-30T06:58:31.490Z,16.20
2019-04-30T07:08:55.839Z,14.73
2019-04-30T07:19:01.534Z,12.37
2019-04-30T07:29:06.984Z,11.67
2019-04-30T07:39:12.388Z,13.53
2019-04-30T07:49:20.427Z,17.60
2019-04-30T07:59:24.873Z,12.20
2019-04-30T08:09:39.166Z,10.60
2019-04-30T08:19:38.797Z,14.93
2019-04-30T08:29:44.798Z,13.07
2019-04-30T08:39:50.312Z,15.77
2019-04-30T08:49:55.844Z,14.67
2019-04-30T09:00:01.533Z,13.27
2019-04-30T09:10:09.606Z,13.83
2019-04-30T09:20:15.043Z,10.80
2019-04-30T09:30:20.389Z,15.33
2019-04-30T09:40:25.983Z,10.37
2019-04-30T09:50:31.900Z,10.80
2019-04-30T10:00:39.303Z,11.73
2019-04-30T10:10:58.781Z,14.30
2019-04-30T10:21:04.237Z,14.20
2019-04-30T10:31:09.777Z,14.23
2019-04-30T10:41:16.058Z,11.00
2019-04-30T10:51:21.382Z,14.87
2019-04-30T11:01:29.063Z,12.30
2019-04-30T11:11:34.291Z,11.37
2019-04-30T11:21:39.601Z,10.20
2019-04-30T11:31:54.286Z,11.63
2019-04-30T11:42:00.838Z,12.83
2019-04-30T11:52:06.721Z,13.93
2019-04-30T12:02:39.310Z,9.53
2019-04-30T12:12:44.733Z,10.60
2019-04-30T12:22:50.124Z,11.77
2019-04-30T12:32:56.854Z,10.40
2019-04-30T12:43:02.179Z,9.30
2019-04-30T12:53:11.078Z,13.57
2019-04-30T13:03:16.575Z,10.43
2019-04-30T13:13:22.221Z,13.80
2019-04-30T13:23:29.657Z,10.63
2019-04-30T13:33:43.167Z,12.13
2019-04-30T13:44:10.538Z,9.43
2019-04-30T13:54:16.823Z,10.80
2019-04-30T14:04:39.776Z,8.10
2019-04-30T14:14:45.071Z,9.80
2019-04-30T14:24:50.447Z,9.53
2019-04-30T14:34:58.817Z,12.30
2019-04-30T14:45:17.507Z,10.60
2019-04-30T14:55:42.106Z,11.00
2019-04-30T15:05:51.350Z,16.07
2019-04-30T15:15:54.646Z,10.20
2019-04-30T15:26:00.309Z,9.40
2019-04-30T15:36:06.422Z,11.80
2019-04-30T15:46:11.814Z,10.93
2019-04-30T15:56:19.173Z,12.97
2019-04-30T16:06:24.286Z,8.30
2019-04-30T16:16:33.688Z,10.30
2019-04-30T16:26:49.323Z,10.13
2019-04-30T16:36:46.608Z,8.70
2019-04-30T16:46:52.066Z,11.63
2019-04-30T16:57:05.954Z,8.73
2019-04-30T17:07:18.651Z,12.60
2019-04-30T17:17:23.630Z,8.60
2019-04-30T17:27:29.417Z,13.73
2019-04-30T17:37:34.830Z,11.37
2019-04-30T17:47:40.279Z,14.97
2019-04-30T17:57:45.831Z,12.77
2019-04-30T18:07:51.275Z,8.53
2019-04-30T18:18:08.549Z,10.23
2019-04-30T18:28:14.513Z,13.37
2019-04-30T18:38:20.005Z,13.50
2019-04-30T18:48:25.350Z,13.90
2019-04-30T18:58:39.217Z,14.33
2019-04-30T19:08:51.267Z,18.47
2019-04-30T19:19:06.321Z,15.00
2019-04-30T19:29:11.709Z,14.40
2019-04-30T19:39:19.958Z,12.03
2019-04-30T19:49:25.592Z,12.97
2019-04-30T19:59:31.122Z,18.93
2019-04-30T20:09:36.511Z,14.47
2019-04-30T20:19:41.945Z,17.27
2019-04-30T20:29:51.524Z,15.90
2019-04-30T20:40:11.029Z,14.97
2019-04-30T20:50:16.636Z,14.50
2019-04-30T21:00:22.088Z,17.53
2019-04-30T21:10:29.249Z,18.07
2019-04-30T21:20:34.442Z,22.03
2019-04-30T21:30:40.077Z,20.20
2019-04-30T21:40:45.590Z,16.03
2019-04-30T21:50:50.904Z,24.80
2019-04-30T22:01:23.859Z,16.03
2019-04-30T22:11:30.270Z,19.20
2019-04-30T22:21:35.631Z,21.43
2019-04-30T22:31:40.969Z,14.57
2019-04-30T22:41:46.727Z,21.30
2019-04-30T22:51:53.053Z,28.03
2019-04-30T23:02:08.382Z,21.80
2019-04-30T23:12:13.776Z,23.33
2019-04-30T23:22:19.146Z,25.10
2019-04-30T23:32:24.330Z,26.13
2019-04-30T23:42:29.605Z,24.07
2019-04-30T23:52:34.847Z,22.13
